Portada
METAR-TAF:

METAR-TAF

Aeropuertos :

Aeropuerto Internacional de Nuakchot

Nuakchot, Mauritania

latitud: 18-18-36N, longitud: 015-58-11W, altitud: 3 m

Observación

El informe se hizo hace 1 hora y 36 minutos, a las 01:00 UTC
Viento 10 kt del norte-noroeste
Temperatura 24°C
Humedad 74%
Presión 1010 hPa
Visibilidad 10 km o más
sin nubes por debajo de 1500 m y sin presencia de cumulonimbus.

METAR: GQNO 280100Z 34010KT CAVOK 24/19 Q1010 NOSIG

Hora: 02:36 (02:36 UTC)

Pronóstico

El informe se hizo hace 3 horas y 36 minutos, a las 23:00 UTC
Pronóstico válido del 28 a las 00 UTC al 29 a las 06 UTC
Viento 6 kt del norte-noroeste
Visibilidad: 8000 m
Evolucionando progresivamente
del 28 a las 07 UTC al 28 a las 09 UTC
Viento 8 kt del oeste-suroeste

TAF: GQNO 272300Z 2800/2906 33006KT 8000 NSC BECMG 2807/2809 24008KT

Observaciones y pronósticos meteorológicos de más de 4000 aeropuertos (mensajes METAR y TAF).

Los puntos amarillos y rojos representan las estaciones disponibles.

Ponga el ratón en el punto deseado para ver el nombre de la estación.

Haga clic para ver las observaciones y los pronósticos meteorológicos.

Para cambiar el mapa : haga clic en los botones verdes con una cruz de color negro para hacer un zoom, en el botón verde con un guión para alejar o en las flechas verdes para mapas adyacentes.


METAR-TAF: